createdAt,value
2022-11-24T00:00:45.302Z,4.00
2022-11-24T00:03:56.606Z,5.15
2022-11-24T00:07:00.275Z,5.03
2022-11-24T00:10:04.713Z,4.63
2022-11-24T00:13:07.710Z,4.77
2022-11-24T00:16:19.894Z,3.95
2022-11-24T00:19:23.804Z,3.35
2022-11-24T00:22:26.856Z,3.45
2022-11-24T00:25:29.895Z,4.32
2022-11-24T00:28:34.584Z,4.57
2022-11-24T00:31:41.210Z,3.28
2022-11-24T00:34:45.089Z,3.75
2022-11-24T00:37:48.073Z,4.78
2022-11-24T00:40:52.836Z,4.30
2022-11-24T00:43:56.650Z,2.83
2022-11-24T00:47:00.115Z,4.47
2022-11-24T00:50:05.009Z,4.15
2022-11-24T00:53:08.089Z,4.03
2022-11-24T00:56:11.814Z,6.03
2022-11-24T00:59:15.858Z,4.03
2022-11-24T01:02:18.906Z,3.88
2022-11-24T01:05:22.787Z,3.63
2022-11-24T01:08:26.369Z,2.70
2022-11-24T01:11:53.139Z,3.70
2022-11-24T01:14:57.038Z,3.05
2022-11-24T01:18:01.178Z,4.00
2022-11-24T01:21:09.859Z,3.75
2022-11-24T01:24:15.119Z,3.85
2022-11-24T01:27:18.826Z,4.03
2022-11-24T01:30:24.115Z,3.70
2022-11-24T01:33:27.520Z,4.07
2022-11-24T01:36:31.683Z,3.38
2022-11-24T01:39:35.319Z,3.67
2022-11-24T01:42:52.041Z,4.03
2022-11-24T01:45:56.558Z,3.90
2022-11-24T01:49:09.876Z,5.05
2022-11-24T01:52:20.782Z,4.88
2022-11-24T01:55:31.995Z,5.50
2022-11-24T01:58:37.159Z,4.30
2022-11-24T02:01:41.354Z,5.03
2022-11-24T02:04:46.367Z,3.35
2022-11-24T02:07:51.416Z,4.43
2022-11-24T02:10:55.871Z,4.40
2022-11-24T02:14:00.122Z,4.60
2022-11-24T02:17:03.902Z,5.85
2022-11-24T02:20:10.831Z,4.35
2022-11-24T02:23:25.358Z,4.70
2022-11-24T02:26:46.048Z,5.05
2022-11-24T02:29:50.666Z,4.10
2022-11-24T02:32:55.336Z,4.50
2022-11-24T02:35:59.248Z,3.30
2022-11-24T02:39:03.276Z,3.13
2022-11-24T02:42:13.662Z,3.10
2022-11-24T02:45:17.762Z,3.77
2022-11-24T02:48:21.467Z,3.13
2022-11-24T02:51:25.589Z,2.97
2022-11-24T02:54:29.587Z,3.55
2022-11-24T02:57:35.894Z,4.20
2022-11-24T03:00:39.652Z,3.97
2022-11-24T03:03:43.065Z,3.42
2022-11-24T03:06:46.068Z,2.97
2022-11-24T03:09:50.206Z,3.83
2022-11-24T03:12:54.918Z,5.00
2022-11-24T03:15:59.357Z,4.13
2022-11-24T03:19:03.085Z,4.85
2022-11-24T03:22:07.176Z,3.83
2022-11-24T03:25:10.654Z,4.35
2022-11-24T03:28:13.980Z,4.80
2022-11-24T03:31:18.294Z,4.87
2022-11-24T03:34:22.440Z,4.05
2022-11-24T03:37:25.490Z,7.93
2022-11-24T03:40:28.759Z,9.82
2022-11-24T03:43:32.650Z,10.05
2022-11-24T03:46:36.442Z,14.17
2022-11-24T03:49:41.960Z,12.02
2022-11-24T03:52:46.004Z,9.02
2022-11-24T03:55:49.670Z,7.15
2022-11-24T03:58:53.737Z,7.90
2022-11-24T04:01:57.537Z,8.30
2022-11-24T04:05:01.584Z,7.55
2022-11-24T04:08:06.049Z,8.15
2022-11-24T04:11:30.018Z,12.05
2022-11-24T04:14:34.067Z,12.43
2022-11-24T04:17:38.531Z,11.60
2022-11-24T04:20:43.487Z,12.48
2022-11-24T04:23:46.999Z,15.50
2022-11-24T04:26:50.640Z,19.50
2022-11-24T04:29:54.499Z,13.95
2022-11-24T04:32:58.187Z,11.37
2022-11-24T04:36:01.905Z,10.77
2022-11-24T04:39:25.874Z,9.77
2022-11-24T04:42:29.148Z,10.82
2022-11-24T04:45:32.934Z,10.15
2022-11-24T04:48:37.039Z,12.17
2022-11-24T04:51:41.034Z,9.45
2022-11-24T04:54:44.694Z,11.88
2022-11-24T04:57:48.432Z,11.50
2022-11-24T05:00:52.476Z,11.27
2022-11-24T05:03:57.531Z,9.60
2022-11-24T05:07:01.564Z,10.23
2022-11-24T05:10:23.477Z,9.88
2022-11-24T05:13:27.866Z,9.10
2022-11-24T05:16:31.014Z,10.15
2022-11-24T05:19:34.386Z,8.90
2022-11-24T05:22:37.848Z,8.90
2022-11-24T05:25:47.254Z,9.13
2022-11-24T05:28:51.012Z,9.07
2022-11-24T05:31:54.936Z,8.82
2022-11-24T05:34:58.867Z,9.37
2022-11-24T05:38:03.002Z,8.68
2022-11-24T05:41:07.632Z,10.07
2022-11-24T05:44:11.305Z,10.13
2022-11-24T05:47:14.786Z,7.95
2022-11-24T05:50:20.230Z,9.27
2022-11-24T05:53:24.377Z,9.52
2022-11-24T05:56:28.072Z,11.68
2022-11-24T05:59:32.812Z,8.50
2022-11-24T06:02:37.021Z,8.63
2022-11-24T06:05:40.855Z,9.87
2022-11-24T06:08:44.887Z,9.37
2022-11-24T06:11:49.379Z,11.18
2022-11-24T06:14:53.779Z,11.93
2022-11-24T06:17:57.508Z,9.88
2022-11-24T06:21:12.046Z,9.27
2022-11-24T06:24:16.142Z,10.93
2022-11-24T06:27:20.048Z,9.98
2022-11-24T06:30:23.884Z,9.98
2022-11-24T06:33:27.374Z,10.07
2022-11-24T06:36:31.021Z,11.57
2022-11-24T06:39:34.679Z,11.02
2022-11-24T06:42:38.792Z,11.60
2022-11-24T06:45:42.782Z,11.57
2022-11-24T06:48:46.514Z,10.60
2022-11-24T06:51:50.170Z,10.17
2022-11-24T06:54:54.280Z,11.55
2022-11-24T06:57:58.139Z,10.05
2022-11-24T07:01:01.789Z,10.60
2022-11-24T07:04:05.701Z,10.40
2022-11-24T07:07:09.458Z,10.43
2022-11-24T07:10:13.697Z,11.80
2022-11-24T07:13:17.318Z,10.65
2022-11-24T07:16:26.154Z,11.93
2022-11-24T07:19:29.501Z,13.90
2022-11-24T07:22:32.475Z,12.53
2022-11-24T07:25:35.772Z,12.40
2022-11-24T07:28:39.015Z,15.38
2022-11-24T07:31:43.183Z,16.90
2022-11-24T07:34:46.570Z,15.30
2022-11-24T07:37:49.509Z,16.97
2022-11-24T07:40:53.444Z,15.88
2022-11-24T07:43:57.104Z,13.13
2022-11-24T07:47:01.048Z,16.63
2022-11-24T07:50:04.750Z,17.60
2022-11-24T07:53:08.293Z,18.17
2022-11-24T07:56:13.126Z,16.63
2022-11-24T07:59:16.445Z,17.60
2022-11-24T08:02:20.106Z,17.02
2022-11-24T08:05:23.973Z,15.88
2022-11-24T08:08:27.562Z,12.63
2022-11-24T08:11:32.396Z,14.23
2022-11-24T08:14:36.247Z,12.23
2022-11-24T08:17:40.413Z,14.35
2022-11-24T08:20:43.929Z,16.88
2022-11-24T08:23:48.058Z,14.47
2022-11-24T08:26:51.389Z,13.20
2022-11-24T08:29:55.337Z,10.55
2022-11-24T08:33:01.930Z,11.32
2022-11-24T08:36:13.926Z,12.45
2022-11-24T08:39:16.899Z,16.57
2022-11-24T08:42:20.422Z,13.70
2022-11-24T08:45:25.621Z,15.13
2022-11-24T08:48:29.572Z,11.85
2022-11-24T08:51:32.533Z,12.60
2022-11-24T08:54:36.030Z,13.43
2022-11-24T08:57:39.195Z,13.18
2022-11-24T09:00:42.746Z,13.50
2022-11-24T09:03:50.749Z,14.30
2022-11-24T09:06:55.229Z,13.60
2022-11-24T09:09:58.852Z,13.83
2022-11-24T09:13:03.200Z,13.50
2022-11-24T09:16:13.088Z,12.70
2022-11-24T09:19:17.087Z,13.35
2022-11-24T09:22:20.715Z,14.73
2022-11-24T09:25:26.892Z,12.97
2022-11-24T09:28:30.104Z,14.60
2022-11-24T09:31:36.255Z,15.55
2022-11-24T09:34:39.812Z,16.23
2022-11-24T09:37:45.680Z,16.60
2022-11-24T09:40:50.390Z,17.43
2022-11-24T09:44:06.833Z,18.98
2022-11-24T09:47:22.410Z,20.90
2022-11-24T09:50:44.788Z,19.35
2022-11-24T09:53:55.705Z,18.88
2022-11-24T09:57:02.477Z,19.23
2022-11-24T10:00:14.156Z,23.33
2022-11-24T10:03:24.989Z,18.05
2022-11-24T10:06:32.026Z,21.17
2022-11-24T10:10:29.457Z,19.88
2022-11-24T10:13:35.641Z,21.20
2022-11-24T10:16:54.723Z,18.88
2022-11-24T10:20:06.408Z,19.27
2022-11-24T10:23:28.483Z,19.98
2022-11-24T10:26:43.653Z,22.25
2022-11-24T10:29:52.550Z,20.97
2022-11-24T10:33:08.949Z,20.02
2022-11-24T10:36:21.279Z,22.58
2022-11-24T10:39:37.762Z,20.83
2022-11-24T10:42:40.940Z,23.73
2022-11-24T10:46:27.774Z,25.40
2022-11-24T10:49:34.297Z,22.70
2022-11-24T10:52:48.826Z,26.48
2022-11-24T10:55:58.670Z,20.92
2022-11-24T10:59:39.001Z,24.05
2022-11-24T11:02:42.967Z,23.83
2022-11-24T11:06:13.511Z,26.25
2022-11-24T11:09:20.167Z,24.88
2022-11-24T11:12:43.396Z,23.65
2022-11-24T11:15:47.294Z,26.50
2022-11-24T11:18:51.880Z,25.77
2022-11-24T11:22:13.706Z,29.73
2022-11-24T11:25:22.042Z,28.98
2022-11-24T11:28:29.887Z,30.70
2022-11-24T11:31:35.688Z,31.00
2022-11-24T11:34:41.290Z,28.20
2022-11-24T11:37:47.315Z,29.83
2022-11-24T11:40:53.311Z,33.83
2022-11-24T11:44:28.302Z,31.67
2022-11-24T11:48:05.785Z,31.05
2022-11-24T11:51:23.743Z,38.60
2022-11-24T11:54:46.553Z,41.22
2022-11-24T11:58:02.709Z,34.63
2022-11-24T12:01:43.867Z,35.63
2022-11-24T12:04:53.419Z,33.38
2022-11-24T12:08:22.973Z,30.38
2022-11-24T12:11:39.019Z,30.15
2022-11-24T12:15:04.581Z,26.70
2022-11-24T12:22:07.920Z,24.27
2022-11-24T12:25:22.076Z,28.30
2022-11-24T12:29:08.260Z,26.08
2022-11-24T12:33:08.887Z,23.35
2022-11-24T12:36:46.937Z,21.35
2022-11-24T12:40:16.865Z,18.00
2022-11-24T12:43:31.202Z,14.52
2022-11-24T12:46:57.360Z,8.93
2022-11-24T12:50:12.525Z,9.00
2022-11-24T12:53:19.676Z,5.57
2022-11-24T12:56:58.526Z,5.70
2022-11-24T13:00:09.076Z,5.13
2022-11-24T13:03:14.927Z,3.75
2022-11-24T13:06:49.846Z,3.10
2022-11-24T13:10:54.158Z,3.47
2022-11-24T13:14:16.129Z,2.50
2022-11-24T13:17:50.237Z,2.75
2022-11-24T13:20:59.627Z,4.03
2022-11-24T13:24:06.758Z,4.80
2022-11-24T13:27:16.758Z,10.17
2022-11-24T13:30:35.423Z,28.83
2022-11-24T13:33:39.995Z,30.27
2022-11-24T13:36:54.228Z,34.15
2022-11-24T13:40:05.826Z,28.13
2022-11-24T13:43:11.690Z,27.53
2022-11-24T13:46:14.686Z,29.50
2022-11-24T13:49:21.557Z,23.55
2022-11-24T13:52:51.524Z,26.60
2022-11-24T13:56:12.737Z,26.27
2022-11-24T13:59:30.305Z,24.00
2022-11-24T14:02:35.455Z,26.35
2022-11-24T14:05:40.744Z,29.15
2022-11-24T14:08:46.560Z,39.47
2022-11-24T14:12:20.803Z,31.30
2022-11-24T14:15:35.048Z,25.15
2022-11-24T14:18:40.323Z,24.35
2022-11-24T14:21:45.985Z,20.48
2022-11-24T14:24:57.924Z,29.88
2022-11-24T14:28:02.369Z,26.30
2022-11-24T14:31:17.303Z,26.00
2022-11-24T14:34:22.941Z,24.48
2022-11-24T14:37:26.707Z,25.75
2022-11-24T14:40:50.414Z,27.47
2022-11-24T14:44:14.513Z,25.75
2022-11-24T14:47:34.811Z,26.05
2022-11-24T14:50:38.566Z,30.27
2022-11-24T14:53:44.733Z,31.02
2022-11-24T14:57:05.887Z,27.83
2022-11-24T15:00:22.524Z,28.42
2022-11-24T15:03:25.465Z,28.10
2022-11-24T15:06:29.405Z,32.70
2022-11-24T15:09:40.182Z,29.77
2022-11-24T15:12:58.576Z,28.50
2022-11-24T15:16:09.677Z,25.58
2022-11-24T15:19:16.575Z,29.88
2022-11-24T15:22:38.003Z,28.13
2022-11-24T15:25:41.667Z,27.30
2022-11-24T15:28:47.531Z,28.08
2022-11-24T15:31:53.020Z,29.52
2022-11-24T15:34:57.207Z,29.90
2022-11-24T15:38:00.268Z,30.10
2022-11-24T15:41:03.672Z,29.80
2022-11-24T15:44:08.504Z,30.63
2022-11-24T15:47:12.089Z,32.93
2022-11-24T15:50:16.519Z,36.63
2022-11-24T15:53:24.793Z,32.58
2022-11-24T15:56:34.590Z,31.67
2022-11-24T15:59:39.626Z,34.67
2022-11-24T16:02:43.418Z,27.95
2022-11-24T16:05:56.398Z,28.83
2022-11-24T16:08:59.662Z,30.50
2022-11-24T16:12:04.655Z,30.55
2022-11-24T16:15:08.738Z,29.65
2022-11-24T16:18:14.398Z,29.27
2022-11-24T16:21:18.474Z,33.95
2022-11-24T16:24:22.524Z,35.95
2022-11-24T16:27:26.170Z,32.20
2022-11-24T16:30:29.909Z,25.02
2022-11-24T16:33:33.983Z,22.13
2022-11-24T16:36:37.583Z,25.40
2022-11-24T16:39:46.987Z,23.53
2022-11-24T16:42:53.684Z,26.77
2022-11-24T16:46:18.745Z,23.35
2022-11-24T16:49:22.528Z,23.88
2022-11-24T16:52:26.175Z,22.48
2022-11-24T16:55:29.244Z,23.53
2022-11-24T16:58:32.621Z,22.13
2022-11-24T17:01:36.732Z,23.58
2022-11-24T17:04:40.278Z,21.80
2022-11-24T17:07:43.335Z,20.60
2022-11-24T17:10:46.821Z,18.90
2022-11-24T17:13:50.275Z,19.60
2022-11-24T17:16:53.902Z,19.67
2022-11-24T17:19:57.572Z,18.60
2022-11-24T17:23:01.534Z,17.33
2022-11-24T17:26:07.541Z,14.47
2022-11-24T17:29:11.503Z,14.50
2022-11-24T17:32:15.239Z,17.25
2022-11-24T17:35:18.615Z,18.00
2022-11-24T17:38:22.368Z,19.20
2022-11-24T17:41:26.469Z,16.95
2022-11-24T17:44:30.122Z,17.05
2022-11-24T17:47:34.251Z,15.00
2022-11-24T17:50:37.859Z,13.95
2022-11-24T17:53:43.213Z,11.13
2022-11-24T17:56:48.942Z,10.85
2022-11-24T17:59:54.009Z,11.48
2022-11-24T18:02:58.248Z,10.77
2022-11-24T18:06:09.816Z,9.07
2022-11-24T18:09:13.210Z,9.15
2022-11-24T18:12:16.533Z,9.55
2022-11-24T18:15:20.190Z,10.00
2022-11-24T18:18:23.586Z,11.00
2022-11-24T18:21:27.200Z,11.15
2022-11-24T18:24:31.205Z,12.93
2022-11-24T18:27:34.963Z,19.17
2022-11-24T18:30:38.795Z,17.25
2022-11-24T18:33:44.062Z,20.60
2022-11-24T18:36:53.140Z,17.25
2022-11-24T18:39:56.497Z,19.63
2022-11-24T18:43:00.512Z,17.27
2022-11-24T18:46:22.340Z,16.87
2022-11-24T18:49:26.230Z,17.38
2022-11-24T18:52:29.490Z,14.05
2022-11-24T18:55:34.054Z,14.43
2022-11-24T18:58:37.736Z,14.82
2022-11-24T19:01:41.103Z,12.98
2022-11-24T19:04:45.029Z,11.20
2022-11-24T19:07:48.415Z,10.13
2022-11-24T19:10:52.634Z,9.38
2022-11-24T19:13:56.996Z,9.77
2022-11-24T19:17:03.011Z,11.07
2022-11-24T19:20:06.724Z,10.90
2022-11-24T19:23:10.066Z,10.20
2022-11-24T19:26:13.696Z,8.15
2022-11-24T19:29:17.306Z,7.13
2022-11-24T19:32:21.050Z,5.70
2022-11-24T19:35:24.628Z,5.10
2022-11-24T19:38:30.081Z,3.08
2022-11-24T19:41:34.054Z,3.28
2022-11-24T19:44:37.703Z,3.23
2022-11-24T19:47:41.040Z,2.90
2022-11-24T19:50:44.050Z,2.30
2022-11-24T19:53:48.066Z,2.67
2022-11-24T19:56:50.928Z,3.07
2022-11-24T19:59:54.908Z,2.90
2022-11-24T20:02:59.364Z,3.72
2022-11-24T20:06:02.950Z,3.40
2022-11-24T20:09:09.006Z,2.80
2022-11-24T20:12:11.953Z,3.30
2022-11-24T20:15:15.361Z,3.17
2022-11-24T20:18:18.963Z,2.80
2022-11-24T20:21:33.759Z,3.25
2022-11-24T20:24:37.569Z,2.70
2022-11-24T20:27:41.696Z,2.85
2022-11-24T20:30:44.620Z,2.78
2022-11-24T20:33:48.582Z,2.15
2022-11-24T20:36:53.406Z,1.80
2022-11-24T20:39:58.858Z,1.45
2022-11-24T20:43:01.776Z,1.92
2022-11-24T20:46:10.931Z,2.10
2022-11-24T20:49:20.305Z,1.80
2022-11-24T20:52:23.256Z,2.03
2022-11-24T20:55:26.308Z,1.80
2022-11-24T20:58:29.734Z,2.05
2022-11-24T21:01:44.227Z,2.33
2022-11-24T21:04:47.758Z,2.33
2022-11-24T21:07:50.729Z,2.10
2022-11-24T21:10:55.569Z,3.10
2022-11-24T21:13:59.796Z,2.80
2022-11-24T21:17:03.810Z,3.05
2022-11-24T21:20:08.468Z,3.17
2022-11-24T21:23:13.001Z,3.15
2022-11-24T21:26:17.938Z,3.90
2022-11-24T21:29:23.930Z,2.97
2022-11-24T21:32:28.730Z,4.05
2022-11-24T21:35:35.895Z,4.28
2022-11-24T21:38:40.221Z,3.72
2022-11-24T21:41:43.710Z,3.40
2022-11-24T21:44:47.645Z,3.55
2022-11-24T21:47:51.207Z,3.50
2022-11-24T21:50:54.783Z,4.18
2022-11-24T21:53:57.854Z,8.02
2022-11-24T21:57:02.231Z,6.43
2022-11-24T22:00:07.431Z,6.10
2022-11-24T22:03:11.133Z,4.45
2022-11-24T22:06:14.815Z,5.18
2022-11-24T22:09:18.777Z,4.53
2022-11-24T22:12:22.413Z,4.82
2022-11-24T22:15:26.434Z,6.00
2022-11-24T22:18:32.849Z,4.75
2022-11-24T22:21:36.581Z,4.78
2022-11-24T22:24:40.429Z,3.83
2022-11-24T22:27:44.680Z,5.47
2022-11-24T22:30:48.439Z,4.88
2022-11-24T22:33:53.134Z,4.85
2022-11-24T22:36:56.873Z,3.72
2022-11-24T22:40:00.930Z,3.65
2022-11-24T22:43:04.645Z,3.30
2022-11-24T22:46:14.432Z,4.75
2022-11-24T22:49:17.730Z,3.30
2022-11-24T22:52:21.584Z,3.10
2022-11-24T22:55:25.133Z,3.40
2022-11-24T22:58:28.754Z,4.73
2022-11-24T23:01:34.167Z,4.63
2022-11-24T23:04:38.300Z,4.10
2022-11-24T23:07:41.865Z,4.22
2022-11-24T23:10:45.932Z,4.13
2022-11-24T23:13:53.936Z,5.43
2022-11-24T23:16:58.093Z,4.75
2022-11-24T23:20:01.719Z,4.10
2022-11-24T23:23:05.703Z,3.70
2022-11-24T23:26:17.460Z,4.60
2022-11-24T23:29:21.503Z,4.70
2022-11-24T23:32:25.186Z,3.92
2022-11-24T23:35:29.138Z,4.00
2022-11-24T23:38:34.997Z,4.07
2022-11-24T23:41:38.993Z,2.87
2022-11-24T23:44:42.760Z,2.78
2022-11-24T23:47:46.457Z,2.70
2022-11-24T23:50:50.158Z,3.05
2022-11-24T23:53:54.751Z,2.30
2022-11-24T23:56:58.500Z,1.90
